createdAt,value
2017-11-07T00:01:42.392Z,12.80
2017-11-07T00:07:10.790Z,13.23
2017-11-07T00:12:57.847Z,12.17
2017-11-07T00:18:25.986Z,12.93
2017-11-07T00:23:54.119Z,13.80
2017-11-07T00:29:22.348Z,12.37
2017-11-07T00:34:51.210Z,13.73
2017-11-07T00:40:20.137Z,13.40
2017-11-07T00:45:49.050Z,12.47
2017-11-07T00:51:17.217Z,14.53
2017-11-07T00:56:59.286Z,15.33
2017-11-07T01:02:27.464Z,15.47
2017-11-07T01:07:56.373Z,15.20
2017-11-07T01:13:24.712Z,15.27
2017-11-07T01:18:52.914Z,15.47
2017-11-07T01:24:21.049Z,17.27
2017-11-07T01:29:49.375Z,16.90
2017-11-07T01:35:17.743Z,18.37
2017-11-07T01:40:45.875Z,18.80
2017-11-07T01:46:14.963Z,18.23
2017-11-07T01:51:43.393Z,19.43
2017-11-07T01:57:11.576Z,19.43
2017-11-07T02:02:39.741Z,19.50
2017-11-07T02:08:08.642Z,19.20
2017-11-07T02:13:45.383Z,19.73
2017-11-07T02:19:13.554Z,20.33
2017-11-07T02:24:42.022Z,19.37
2017-11-07T02:30:10.188Z,20.90
2017-11-07T02:35:38.664Z,20.87
2017-11-07T02:41:06.809Z,19.80
2017-11-07T02:46:35.726Z,19.47
2017-11-07T02:52:03.863Z,18.47
2017-11-07T02:57:32.008Z,18.67
2017-11-07T03:03:00.156Z,18.70
2017-11-07T03:08:28.296Z,17.80
2017-11-07T03:13:56.453Z,20.07
2017-11-07T03:19:25.352Z,19.47
2017-11-07T03:24:53.493Z,16.80
2017-11-07T03:30:21.672Z,19.30
2017-11-07T03:35:49.815Z,19.70
2017-11-07T03:41:17.935Z,17.87
2017-11-07T03:46:46.710Z,17.30
2017-11-07T03:52:23.275Z,17.33
2017-11-07T03:57:51.425Z,18.80
2017-11-07T04:03:19.555Z,19.10
2017-11-07T04:09:10.430Z,17.90
2017-11-07T04:14:38.896Z,19.13
2017-11-07T04:20:07.052Z,17.53
2017-11-07T04:25:40.939Z,19.87
2017-11-07T04:31:09.175Z,19.07
2017-11-07T04:36:37.388Z,18.50
2017-11-07T04:42:05.558Z,19.53
2017-11-07T04:47:33.734Z,17.53
2017-11-07T04:53:02.829Z,17.90
2017-11-07T04:58:31.726Z,18.33
2017-11-07T05:04:06.771Z,19.03
2017-11-07T05:09:35.811Z,18.10
2017-11-07T05:15:21.662Z,16.53
2017-11-07T05:20:49.816Z,18.27
2017-11-07T05:26:18.001Z,17.33
2017-11-07T05:32:04.201Z,17.50
2017-11-07T05:37:32.361Z,17.40
2017-11-07T05:43:00.521Z,15.93
2017-11-07T05:48:29.428Z,16.47
2017-11-07T05:54:01.357Z,15.13
2017-11-07T05:59:29.485Z,13.93
2017-11-07T06:04:57.610Z,12.47
2017-11-07T06:10:25.753Z,15.20
2017-11-07T06:15:53.901Z,14.13
2017-11-07T06:21:22.826Z,13.83
2017-11-07T06:26:51.753Z,13.20
2017-11-07T06:32:19.900Z,14.00
2017-11-07T06:37:48.788Z,14.47
2017-11-07T06:43:16.946Z,12.23
2017-11-07T06:48:45.857Z,12.33
2017-11-07T06:54:14.002Z,12.00
2017-11-07T06:59:42.910Z,11.77
2017-11-07T07:05:11.076Z,10.60
2017-11-07T07:10:39.224Z,12.33
2017-11-07T07:16:07.373Z,11.47
2017-11-07T07:21:35.536Z,12.63
2017-11-07T07:27:03.704Z,12.47
2017-11-07T07:32:32.759Z,11.10
2017-11-07T07:38:00.916Z,12.33
2017-11-07T07:43:29.095Z,12.80
2017-11-07T07:48:57.239Z,12.37
2017-11-07T07:54:26.144Z,11.70
2017-11-07T07:59:54.291Z,12.40
2017-11-07T08:05:23.195Z,12.50
2017-11-07T08:10:51.341Z,11.13
2017-11-07T08:16:19.469Z,11.80
2017-11-07T08:21:48.725Z,10.43
2017-11-07T08:27:17.622Z,10.30
2017-11-07T08:32:45.780Z,9.80
2017-11-07T08:38:14.688Z,8.27
2017-11-07T08:43:42.816Z,9.87
2017-11-07T08:49:10.956Z,9.33
2017-11-07T08:54:39.857Z,7.93
2017-11-07T09:00:08.013Z,8.20
2017-11-07T09:05:36.893Z,8.30
2017-11-07T09:11:05.045Z,8.90
2017-11-07T09:16:33.178Z,9.93
2017-11-07T09:22:02.078Z,10.90
2017-11-07T09:27:30.233Z,11.00
2017-11-07T09:32:59.142Z,13.80
2017-11-07T09:38:27.288Z,14.60
2017-11-07T09:43:56.190Z,15.23
2017-11-07T09:49:25.180Z,16.73
2017-11-07T09:54:54.098Z,18.53
2017-11-07T10:00:22.237Z,18.47
2017-11-07T10:05:50.382Z,20.07
2017-11-07T10:11:18.538Z,18.43
2017-11-07T10:16:46.693Z,18.73
2017-11-07T10:22:15.596Z,18.20
2017-11-07T10:27:43.804Z,18.30
2017-11-07T10:33:11.958Z,18.67
2017-11-07T10:38:40.122Z,18.70
2017-11-07T10:44:08.262Z,20.10
2017-11-07T10:49:36.416Z,18.33
2017-11-07T10:55:05.365Z,17.37
2017-11-07T11:00:34.269Z,18.00
2017-11-07T11:06:02.408Z,19.83
2017-11-07T11:11:31.317Z,19.90
2017-11-07T11:16:59.465Z,18.37
2017-11-07T11:22:28.373Z,20.30
2017-11-07T11:27:56.529Z,16.80
2017-11-07T11:33:25.436Z,19.30
2017-11-07T11:38:53.582Z,18.70
2017-11-07T11:44:22.512Z,19.63
2017-11-07T11:49:50.649Z,20.80
2017-11-07T11:55:19.608Z,22.00
2017-11-07T12:00:47.758Z,20.30
2017-11-07T12:06:15.897Z,19.10
2017-11-07T12:11:44.043Z,20.07
2017-11-07T12:17:12.966Z,18.83
2017-11-07T12:22:41.161Z,20.47
2017-11-07T12:28:09.327Z,23.30
2017-11-07T12:33:37.498Z,21.73
2017-11-07T12:39:05.645Z,21.00
2017-11-07T12:44:33.821Z,20.83
2017-11-07T12:50:19.832Z,21.27
2017-11-07T12:55:47.989Z,21.77
2017-11-07T13:01:16.140Z,22.57
2017-11-07T13:06:44.277Z,20.60
2017-11-07T13:12:13.200Z,20.97
2017-11-07T13:17:41.341Z,20.80
2017-11-07T13:23:10.264Z,23.90
2017-11-07T13:28:39.184Z,22.67
2017-11-07T13:34:07.343Z,22.60
2017-11-07T13:39:35.494Z,21.77
2017-11-07T13:45:03.656Z,22.63
2017-11-07T13:50:32.550Z,23.20
2017-11-07T13:56:00.704Z,22.80
2017-11-07T14:01:28.850Z,22.83
2017-11-07T14:06:57.034Z,23.67
2017-11-07T14:12:25.194Z,23.80
2017-11-07T14:17:53.345Z,25.30
2017-11-07T14:23:21.489Z,23.07
2017-11-07T14:28:49.634Z,22.60
2017-11-07T14:34:18.543Z,23.87
2017-11-07T14:39:46.696Z,22.47
2017-11-07T14:45:14.848Z,22.70
2017-11-07T14:50:42.996Z,24.17
2017-11-07T14:56:11.168Z,24.43
2017-11-07T15:01:39.293Z,22.60
2017-11-07T15:07:07.584Z,23.77
2017-11-07T15:12:35.713Z,24.33
2017-11-07T15:18:04.660Z,23.87
2017-11-07T15:23:32.797Z,22.67
2017-11-07T15:29:00.945Z,22.53
2017-11-07T15:34:29.078Z,22.10
2017-11-07T15:39:57.264Z,23.73
2017-11-07T15:45:25.418Z,24.07
2017-11-07T15:50:53.564Z,23.03
2017-11-07T15:56:21.714Z,23.00
2017-11-07T16:01:50.627Z,23.73
2017-11-07T16:07:19.550Z,21.57
2017-11-07T16:12:47.711Z,23.27
2017-11-07T16:18:15.852Z,24.07
2017-11-07T16:23:43.981Z,23.27
2017-11-07T16:29:12.117Z,24.83
2017-11-07T16:34:40.250Z,24.33
2017-11-07T16:40:09.174Z,24.30
2017-11-07T16:45:38.015Z,24.97
2017-11-07T16:51:06.137Z,25.67
2017-11-07T16:56:39.207Z,31.60
2017-11-07T17:02:07.387Z,26.83
2017-11-07T17:07:35.752Z,26.70
2017-11-07T17:13:03.974Z,25.07
2017-11-07T17:18:32.094Z,25.10
2017-11-07T17:24:00.229Z,26.00
2017-11-07T17:29:28.353Z,28.60
2017-11-07T17:34:56.491Z,27.80
2017-11-07T17:40:24.746Z,28.60
2017-11-07T17:45:53.854Z,27.00
2017-11-07T17:51:23.014Z,28.90
2017-11-07T17:56:51.251Z,27.87
2017-11-07T18:02:20.177Z,27.50
2017-11-07T18:07:48.426Z,27.17
2017-11-07T18:13:17.312Z,28.47
2017-11-07T18:18:46.394Z,27.63
2017-11-07T18:24:14.527Z,26.97
2017-11-07T18:29:42.695Z,26.97
2017-11-07T18:35:13.121Z,28.30
2017-11-07T18:40:41.322Z,28.70
2017-11-07T18:46:10.355Z,28.37
2017-11-07T18:51:39.511Z,28.50
2017-11-07T18:57:10.270Z,25.73
2017-11-07T19:02:39.900Z,26.30
2017-11-07T19:08:09.663Z,26.90
2017-11-07T19:13:39.604Z,27.43
2017-11-07T19:19:07.967Z,29.37
2017-11-07T19:24:36.175Z,28.20
2017-11-07T19:30:08.803Z,27.00
2017-11-07T19:35:38.189Z,26.27
2017-11-07T19:41:12.449Z,28.03
2017-11-07T19:46:40.606Z,28.87
2017-11-07T19:52:08.813Z,29.17
2017-11-07T19:57:36.984Z,29.67
2017-11-07T20:03:05.188Z,27.27
2017-11-07T20:08:36.838Z,27.97
2017-11-07T20:14:05.885Z,28.13
2017-11-07T20:19:36.019Z,23.73
2017-11-07T20:25:04.185Z,28.30
2017-11-07T20:30:33.343Z,22.70
2017-11-07T20:36:01.520Z,24.40
2017-11-07T20:41:37.013Z,19.53
2017-11-07T20:47:08.793Z,19.17
2017-11-07T20:52:38.585Z,21.73
2017-11-07T20:58:10.918Z,18.70
2017-11-07T21:04:02.714Z,18.73
2017-11-07T21:09:38.013Z,17.70
2017-11-07T21:15:06.227Z,15.60
2017-11-07T21:20:34.348Z,16.70
2017-11-07T21:26:02.541Z,17.97
2017-11-07T21:31:30.697Z,16.97
2017-11-07T21:36:58.851Z,15.70
2017-11-07T21:42:39.630Z,16.10
2017-11-07T21:48:22.405Z,16.13
2017-11-07T21:54:14.253Z,14.40
2017-11-07T21:59:42.425Z,16.13
2017-11-07T22:05:11.473Z,17.70
2017-11-07T22:10:47.625Z,17.13
2017-11-07T22:16:20.190Z,16.33
2017-11-07T22:21:50.412Z,16.13
2017-11-07T22:27:18.598Z,17.77
2017-11-07T22:32:47.508Z,17.33
2017-11-07T22:38:15.667Z,18.00
2017-11-07T22:43:44.777Z,17.60
2017-11-07T22:49:14.276Z,23.77
2017-11-07T22:54:43.391Z,19.07
2017-11-07T23:00:12.916Z,18.17
2017-11-07T23:05:41.133Z,18.80
2017-11-07T23:11:09.375Z,18.90
2017-11-07T23:16:38.490Z,18.47
2017-11-07T23:22:06.644Z,17.67
2017-11-07T23:27:35.573Z,18.10
2017-11-07T23:33:04.499Z,17.97
2017-11-07T23:38:32.673Z,18.80
2017-11-07T23:44:01.598Z,18.60
2017-11-07T23:49:29.753Z,19.77
2017-11-07T23:54:57.926Z,18.37
